Briefing drone pour Fontaine

Rechercher une autre localisation

Conditions de vol :


Nous sommes le : Mardi 30 novembre 2021
Il est 00:38 UTC (01:38 LT)

Lever de soleil : 06:28 UTC (07:28 LT)
Coucher de soleil : 16:23 UTC (17:23 LT)

Météo

L'essentiel des conditions de vol

VIGILANCE MÉTÉO FRANCE - Isère (38)
Vigilance Jaune : Avalanches / Neige-verglas
CARTE TEMSI
CARTES DES FRONTS
METAR de LFLS
LFLS 300030Z AUTO 03003KT 340V120 9999 FEW014 BKN043 OVC049 M02/M05 Q1021

Date d'émission: 30/11/2021
Heure d'émission: 00:30 UTC
Vent: 030° (variable du 340° au 120°) pour 3 KT (6 km/h)
Visibilité horizontale: > 10 km
Plafond :
- Peu de nuages à 1400ft (427m)
- Nuages morcelés à 4300ft (1311m)
- Couvert à 4900ft (1494m)
Température: -2 °C
Point de rosée: -5 °C
Humidité: 80%
Pression (QNH): 1021 hPa
TAF de LFLS
LFLS 291958Z 2919/3015 CNL

Conditions prévues :

Heure d'émission : Bulletin éffectué le 29 à 19:00 UTC
Prévision : Valide du 29 a 19:00 UTC au 30 a 15:00 UTC
Nuages : à 0ft (0 m)
WEBCAM POUR FONTAINE

Réglementation

Voler en sécurité

CARTES AERONAUTIQUE 1/500.000
CARTES VAC (LFLS)
SUP AIP




Chargement des AIP...
NOTAM (FONTAINE + Terrain à proximité / FIR )




Chargement des NOTAMS...
CONTACT PREFECTURE 38


Avertissement : Les données mises à disposition sont indicatives. Oxygène Drone ne pourra être tenu responsable de dégâts causés aux biens et aux personnes.